createdAt,value
2022-10-06T00:01:30.998Z,95.33
2022-10-06T00:06:34.033Z,95.07
2022-10-06T00:11:36.938Z,95.37
2022-10-06T00:16:41.008Z,95.33
2022-10-06T00:21:43.705Z,95.30
2022-10-06T00:26:47.256Z,95.57
2022-10-06T00:31:51.326Z,95.53
2022-10-06T00:36:54.024Z,95.44
2022-10-06T00:41:56.726Z,95.51
2022-10-06T00:47:02.987Z,95.46
2022-10-06T00:52:10.875Z,95.43
2022-10-06T00:57:13.688Z,95.44
2022-10-06T01:02:22.960Z,95.58
2022-10-06T01:07:28.301Z,95.52
2022-10-06T01:12:34.229Z,95.37
2022-10-06T01:17:43.193Z,95.14
2022-10-06T01:22:51.436Z,95.00
2022-10-06T01:27:56.352Z,94.87
2022-10-06T01:32:59.390Z,94.47
2022-10-06T01:38:03.455Z,93.98
2022-10-06T01:43:06.168Z,93.40
2022-10-06T01:48:08.980Z,92.38
2022-10-06T01:53:13.086Z,92.07
2022-10-06T01:58:15.987Z,90.89
2022-10-06T02:03:19.043Z,89.80
2022-10-06T02:08:23.103Z,89.27
2022-10-06T02:13:26.161Z,89.18
2022-10-06T02:18:29.515Z,89.11
2022-10-06T02:23:35.057Z,89.22
2022-10-06T02:28:38.089Z,89.31
2022-10-06T02:33:41.973Z,89.24
2022-10-06T02:38:46.094Z,89.67
2022-10-06T02:43:48.764Z,89.24
2022-10-06T02:48:51.860Z,88.87
2022-10-06T02:53:55.912Z,88.47
2022-10-06T02:58:58.622Z,88.30
2022-10-06T03:04:01.382Z,88.31
2022-10-06T03:09:07.468Z,88.91
2022-10-06T03:14:10.236Z,89.28
2022-10-06T03:19:12.947Z,89.76
2022-10-06T03:24:17.314Z,89.21
2022-10-06T03:29:20.049Z,88.49
2022-10-06T03:34:24.005Z,88.63
2022-10-06T03:39:28.115Z,89.12
2022-10-06T03:44:32.306Z,88.30
2022-10-06T03:49:34.994Z,88.46
2022-10-06T03:54:39.047Z,88.32
2022-10-06T03:59:41.743Z,88.50
2022-10-06T04:04:44.458Z,88.47
2022-10-06T04:09:48.508Z,88.34
2022-10-06T04:14:51.173Z,88.07
2022-10-06T04:19:53.847Z,87.90
2022-10-06T04:24:57.905Z,87.77
2022-10-06T04:30:00.850Z,87.89
2022-10-06T04:35:03.811Z,87.95
2022-10-06T04:40:09.431Z,88.03
2022-10-06T04:45:12.675Z,88.14
2022-10-06T04:50:15.554Z,88.69
2022-10-06T04:55:19.600Z,88.74
2022-10-06T05:00:25.567Z,88.92
2022-10-06T05:05:28.505Z,89.03
2022-10-06T05:10:32.746Z,89.26
2022-10-06T05:15:35.405Z,89.58
2022-10-06T05:20:38.076Z,89.79
2022-10-06T05:25:51.433Z,90.00
2022-10-06T05:30:59.269Z,90.09
2022-10-06T05:36:04.621Z,90.30
2022-10-06T05:41:11.023Z,90.62
2022-10-06T05:46:17.585Z,90.72
2022-10-06T05:51:21.526Z,90.84
2022-10-06T05:56:26.893Z,91.04
2022-10-06T06:01:31.512Z,90.68
2022-10-06T06:06:36.610Z,91.01
2022-10-06T06:11:42.765Z,90.69
2022-10-06T06:16:46.630Z,90.98
2022-10-06T06:21:49.389Z,90.88
2022-10-06T06:26:53.420Z,90.95
2022-10-06T06:31:56.088Z,90.54
2022-10-06T06:37:05.137Z,90.41
2022-10-06T06:42:10.938Z,90.27
2022-10-06T06:47:13.736Z,89.97
2022-10-06T06:52:16.803Z,89.71
2022-10-06T06:57:21.092Z,89.45
2022-10-06T07:02:26.530Z,89.51
2022-10-06T07:07:29.300Z,89.50
2022-10-06T07:12:34.081Z,89.54
2022-10-06T07:17:54.380Z,89.06
2022-10-06T07:23:14.715Z,88.94
2022-10-06T07:28:18.822Z,88.42
2022-10-06T07:33:21.674Z,87.89
2022-10-06T07:38:26.085Z,87.24
2022-10-06T07:43:30.303Z,87.25
2022-10-06T07:48:33.049Z,86.99
2022-10-06T07:53:37.432Z,86.27
2022-10-06T07:58:41.608Z,85.83
2022-10-06T08:03:46.240Z,85.45
2022-10-06T08:08:52.862Z,84.39
2022-10-06T08:13:57.585Z,83.76
2022-10-06T08:19:00.525Z,83.79
2022-10-06T08:24:03.669Z,82.92
2022-10-06T08:29:07.782Z,82.39
2022-10-06T08:34:12.119Z,81.67
2022-10-06T08:39:15.261Z,81.66
2022-10-06T08:44:30.373Z,81.04
2022-10-06T08:49:38.808Z,81.21
2022-10-06T08:54:48.842Z,80.66
2022-10-06T08:59:54.234Z,80.27
2022-10-06T09:05:00.098Z,79.41
2022-10-06T09:10:22.350Z,78.53
2022-10-06T09:15:33.993Z,78.90
2022-10-06T09:20:42.572Z,78.87
2022-10-06T09:25:45.542Z,77.21
2022-10-06T09:30:54.556Z,76.93
2022-10-06T09:36:09.263Z,76.43
2022-10-06T09:41:13.450Z,75.38
2022-10-06T09:46:23.007Z,74.73
2022-10-06T09:51:27.712Z,75.60
2022-10-06T09:56:30.971Z,74.88
2022-10-06T10:01:35.313Z,74.34
2022-10-06T10:06:38.177Z,74.65
2022-10-06T10:11:58.487Z,73.82
2022-10-06T10:17:10.767Z,73.35
2022-10-06T10:22:23.224Z,73.41
2022-10-06T10:27:36.849Z,73.66
2022-10-06T10:32:51.028Z,73.04
2022-10-06T10:38:01.450Z,72.75
2022-10-06T10:43:12.414Z,71.79
2022-10-06T10:48:23.877Z,72.43
2022-10-06T10:53:35.647Z,71.47
2022-10-06T10:59:08.627Z,71.97
2022-10-06T11:04:14.004Z,70.98
2022-10-06T11:09:19.876Z,70.36
2022-10-06T11:14:37.870Z,71.36
2022-10-06T11:19:49.119Z,69.85
2022-10-06T11:25:01.465Z,69.97
2022-10-06T11:30:12.614Z,70.48
2022-10-06T11:35:23.305Z,69.14
2022-10-06T11:41:04.178Z,69.34
2022-10-06T11:46:28.546Z,69.39
2022-10-06T11:51:35.563Z,70.46
2022-10-06T11:56:39.296Z,69.52
2022-10-06T12:02:01.230Z,68.92
2022-10-06T12:07:06.590Z,69.22
2022-10-06T12:13:05.286Z,69.19
2022-10-06T12:18:23.794Z,68.56
2022-10-06T12:23:42.799Z,68.25
2022-10-06T12:28:52.375Z,67.80
2022-10-06T12:33:55.478Z,67.42
2022-10-06T12:39:23.066Z,68.09
2022-10-06T12:44:28.023Z,67.50
2022-10-06T12:49:50.275Z,67.04
2022-10-06T12:55:12.070Z,66.80
2022-10-06T13:00:35.113Z,66.50
2022-10-06T13:05:37.989Z,65.89
2022-10-06T13:15:44.965Z,66.05
2022-10-06T13:20:49.441Z,65.90
2022-10-06T13:25:57.906Z,65.63
2022-10-06T13:36:05.852Z,66.37
2022-10-06T13:41:21.837Z,67.19
2022-10-06T13:46:27.874Z,65.86
2022-10-06T13:51:32.804Z,65.25
2022-10-06T13:56:39.174Z,66.02
2022-10-06T14:01:42.585Z,65.18
2022-10-06T14:06:50.274Z,65.14
2022-10-06T14:12:01.736Z,65.43
2022-10-06T14:17:05.495Z,65.89
2022-10-06T14:22:32.203Z,65.64
2022-10-06T14:27:36.259Z,65.17
2022-10-06T14:32:40.140Z,65.55
2022-10-06T14:37:42.829Z,65.35
2022-10-06T14:47:54.667Z,65.94
2022-10-06T14:52:58.465Z,65.96
2022-10-06T14:58:03.766Z,66.23
2022-10-06T15:03:06.604Z,66.24
2022-10-06T15:08:11.736Z,66.50
2022-10-06T15:13:15.818Z,66.20
2022-10-06T15:18:19.117Z,65.85
2022-10-06T15:23:21.859Z,66.54
2022-10-06T15:28:43.351Z,67.11
2022-10-06T15:33:47.749Z,67.39
2022-10-06T15:38:53.271Z,67.12
2022-10-06T15:43:57.597Z,67.33
2022-10-06T15:49:02.429Z,68.12
2022-10-06T15:54:05.495Z,68.17
2022-10-06T15:59:10.361Z,68.52
2022-10-06T16:04:25.461Z,68.98
2022-10-06T16:09:30.093Z,69.32
2022-10-06T16:14:34.646Z,69.53
2022-10-06T16:19:37.816Z,69.77
2022-10-06T16:24:40.609Z,70.09
2022-10-06T16:29:44.751Z,70.26
2022-10-06T16:34:50.443Z,70.53
2022-10-06T16:39:53.201Z,70.83
2022-10-06T16:44:57.454Z,71.40
2022-10-06T16:50:00.455Z,71.50
2022-10-06T16:55:03.151Z,71.83
2022-10-06T17:00:08.497Z,71.95
2022-10-06T17:05:11.224Z,72.17
2022-10-06T17:10:20.596Z,72.31
2022-10-06T17:15:27.341Z,72.56
2022-10-06T17:20:32.838Z,73.45
2022-10-06T17:25:35.829Z,72.83
2022-10-06T17:30:40.438Z,72.69
2022-10-06T17:35:43.635Z,72.37
2022-10-06T17:40:46.329Z,72.38
2022-10-06T17:45:51.748Z,72.86
2022-10-06T17:50:59.641Z,72.77
2022-10-06T17:56:07.489Z,72.94
2022-10-06T18:01:13.872Z,73.57
2022-10-06T18:06:18.263Z,73.25
2022-10-06T18:11:35.901Z,73.59
2022-10-06T18:16:41.972Z,74.04
2022-10-06T18:21:47.825Z,74.43
2022-10-06T18:26:52.425Z,74.73
2022-10-06T18:32:15.071Z,75.20
2022-10-06T18:37:19.985Z,75.30
2022-10-06T18:42:22.850Z,75.63
2022-10-06T18:47:46.830Z,75.77
2022-10-06T18:52:49.844Z,76.00
2022-10-06T18:57:52.873Z,76.08
2022-10-06T19:02:57.068Z,76.53
2022-10-06T19:07:59.806Z,76.85
2022-10-06T19:13:02.497Z,77.10
2022-10-06T19:18:07.932Z,77.04
2022-10-06T19:23:11.731Z,77.24
2022-10-06T19:28:14.512Z,77.50
2022-10-06T19:33:18.657Z,77.90
2022-10-06T19:38:21.440Z,77.90
2022-10-06T19:43:24.177Z,78.54
2022-10-06T19:48:29.086Z,78.46
2022-10-06T19:53:31.836Z,78.73
2022-10-06T19:58:34.548Z,78.88
2022-10-06T20:03:41.201Z,78.91
2022-10-06T20:08:44.393Z,79.09
2022-10-06T20:13:48.013Z,79.23
2022-10-06T20:18:52.138Z,79.29
2022-10-06T20:23:58.016Z,79.38
2022-10-06T20:29:02.216Z,79.68
2022-10-06T20:34:08.939Z,79.78
2022-10-06T20:39:32.436Z,79.94
2022-10-06T20:44:35.883Z,80.11
2022-10-06T20:49:41.137Z,80.37
2022-10-06T20:54:44.094Z,80.63
2022-10-06T20:59:46.816Z,80.80
2022-10-06T21:04:50.861Z,80.93
2022-10-06T21:09:53.593Z,81.06
2022-10-06T21:14:56.871Z,81.53
2022-10-06T21:20:01.102Z,81.85
2022-10-06T21:25:03.852Z,81.98
2022-10-06T21:30:10.129Z,82.10
2022-10-06T21:35:14.187Z,82.19
2022-10-06T21:40:16.967Z,82.26
2022-10-06T21:45:24.324Z,82.21
2022-10-06T21:50:29.024Z,82.58
2022-10-06T21:55:31.807Z,82.61
2022-10-06T22:00:34.548Z,82.72
2022-10-06T22:05:38.579Z,82.88
2022-10-06T22:10:41.247Z,83.05
2022-10-06T22:15:44.001Z,83.11
2022-10-06T22:20:48.128Z,83.30
2022-10-06T22:25:55.745Z,83.61
2022-10-06T22:31:06.691Z,83.83
2022-10-06T22:36:13.601Z,84.16
2022-10-06T22:41:16.793Z,84.17
2022-10-06T22:46:19.575Z,84.28
2022-10-06T22:51:23.693Z,84.47
2022-10-06T22:56:27.131Z,84.53
2022-10-06T23:01:30.797Z,85.01
2022-10-06T23:06:34.832Z,85.00
2022-10-06T23:11:37.522Z,84.89
2022-10-06T23:16:40.331Z,85.00
2022-10-06T23:21:44.419Z,84.92
2022-10-06T23:26:47.508Z,84.86
2022-10-06T23:31:50.248Z,85.00
2022-10-06T23:36:54.333Z,85.10
2022-10-06T23:41:56.996Z,84.80
2022-10-06T23:46:59.653Z,84.96
2022-10-06T23:52:04.633Z,84.81
2022-10-06T23:57:07.318Z,84.97
